sensor_id;sensor_type;location;lat;lon;timestamp;temperature;humidity
10472;DHT22;5283;48.876;8.962;2023-04-07T00:02:25;5.40;99.90
10472;DHT22;5283;48.876;8.962;2023-04-07T00:04:52;5.40;99.90
10472;DHT22;5283;48.876;8.962;2023-04-07T00:07:19;5.30;99.90
10472;DHT22;5283;48.876;8.962;2023-04-07T00:09:45;5.30;99.90
10472;DHT22;5283;48.876;8.962;2023-04-07T00:12:12;5.30;99.90
10472;DHT22;5283;48.876;8.962;2023-04-07T00:14:39;5.30;99.90
10472;DHT22;5283;48.876;8.962;2023-04-07T00:17:06;5.30;99.90
10472;DHT22;5283;48.876;8.962;2023-04-07T00:19:32;5.30;99.90
10472;DHT22;5283;48.876;8.962;2023-04-07T00:21:59;5.30;99.90
10472;DHT22;5283;48.876;8.962;2023-04-07T00:24:26;5.30;99.90
10472;DHT22;5283;48.876;8.962;2023-04-07T00:26:59;5.30;99.90
10472;DHT22;5283;48.876;8.962;2023-04-07T00:29:26;5.30;99.90
10472;DHT22;5283;48.876;8.962;2023-04-07T00:31:53;5.30;99.90
10472;DHT22;5283;48.876;8.962;2023-04-07T00:34:19;5.30;99.90
10472;DHT22;5283;48.876;8.962;2023-04-07T00:36:46;5.30;99.90
10472;DHT22;5283;48.876;8.962;2023-04-07T00:39:18;5.30;99.90
10472;DHT22;5283;48.876;8.962;2023-04-07T00:41:45;5.30;99.90
10472;DHT22;5283;48.876;8.962;2023-04-07T00:44:12;5.30;99.90
10472;DHT22;5283;48.876;8.962;2023-04-07T00:46:39;5.30;99.90
10472;DHT22;5283;48.876;8.962;2023-04-07T00:49:06;5.30;99.90
10472;DHT22;5283;48.876;8.962;2023-04-07T00:51:34;5.30;99.90
10472;DHT22;5283;48.876;8.962;2023-04-07T00:54:02;5.30;99.90
10472;DHT22;5283;48.876;8.962;2023-04-07T00:56:29;5.30;99.90
10472;DHT22;5283;48.876;8.962;2023-04-07T00:58:56;5.40;99.90
10472;DHT22;5283;48.876;8.962;2023-04-07T01:01:30;5.40;99.90
10472;DHT22;5283;48.876;8.962;2023-04-07T01:04:06;5.40;99.90
10472;DHT22;5283;48.876;8.962;2023-04-07T01:06:37;5.40;99.90
10472;DHT22;5283;48.876;8.962;2023-04-07T01:09:22;5.30;99.90
10472;DHT22;5283;48.876;8.962;2023-04-07T01:12:04;5.30;99.90
10472;DHT22;5283;48.876;8.962;2023-04-07T01:14:37;5.30;99.90
10472;DHT22;5283;48.876;8.962;2023-04-07T01:17:06;5.30;99.90
10472;DHT22;5283;48.876;8.962;2023-04-07T01:19:42;5.20;99.90
10472;DHT22;5283;48.876;8.962;2023-04-07T01:22:15;5.20;99.90
10472;DHT22;5283;48.876;8.962;2023-04-07T01:28:29;5.20;99.90
10472;DHT22;5283;48.876;8.962;2023-04-07T01:30:38;5.20;99.90
10472;DHT22;5283;48.876;8.962;2023-04-07T01:33:06;5.20;99.90
10472;DHT22;5283;48.876;8.962;2023-04-07T01:35:34;5.10;99.90
10472;DHT22;5283;48.876;8.962;2023-04-07T01:38:03;5.20;99.90
10472;DHT22;5283;48.876;8.962;2023-04-07T01:40:32;5.20;99.90
10472;DHT22;5283;48.876;8.962;2023-04-07T01:43:00;5.20;99.90
10472;DHT22;5283;48.876;8.962;2023-04-07T01:45:28;5.20;99.90
10472;DHT22;5283;48.876;8.962;2023-04-07T01:47:56;5.20;99.90
10472;DHT22;5283;48.876;8.962;2023-04-07T01:50:23;5.20;99.90
10472;DHT22;5283;48.876;8.962;2023-04-07T01:52:51;5.30;99.90
10472;DHT22;5283;48.876;8.962;2023-04-07T01:55:20;5.30;99.90
10472;DHT22;5283;48.876;8.962;2023-04-07T01:57:46;5.30;99.90
10472;DHT22;5283;48.876;8.962;2023-04-07T02:00:13;5.40;99.90
10472;DHT22;5283;48.876;8.962;2023-04-07T02:02:43;5.30;99.90
10472;DHT22;5283;48.876;8.962;2023-04-07T02:05:13;5.30;99.90
10472;DHT22;5283;48.876;8.962;2023-04-07T02:07:48;5.30;99.90
10472;DHT22;5283;48.876;8.962;2023-04-07T02:10:19;5.30;99.90
10472;DHT22;5283;48.876;8.962;2023-04-07T02:12:47;5.30;99.90
10472;DHT22;5283;48.876;8.962;2023-04-07T02:15:15;5.30;99.90
10472;DHT22;5283;48.876;8.962;2023-04-07T02:17:44;5.30;99.90
10472;DHT22;5283;48.876;8.962;2023-04-07T02:20:13;5.20;99.90
10472;DHT22;5283;48.876;8.962;2023-04-07T02:22:41;5.30;99.90
10472;DHT22;5283;48.876;8.962;2023-04-07T02:25:26;5.30;99.90
10472;DHT22;5283;48.876;8.962;2023-04-07T02:27:55;5.40;99.90
10472;DHT22;5283;48.876;8.962;2023-04-07T02:30:22;5.30;99.90
10472;DHT22;5283;48.876;8.962;2023-04-07T02:32:49;5.40;99.90
10472;DHT22;5283;48.876;8.962;2023-04-07T02:35:16;5.40;99.90
10472;DHT22;5283;48.876;8.962;2023-04-07T02:37:44;5.30;99.90
10472;DHT22;5283;48.876;8.962;2023-04-07T02:40:11;5.30;99.90
10472;DHT22;5283;48.876;8.962;2023-04-07T02:42:38;5.20;99.90
10472;DHT22;5283;48.876;8.962;2023-04-07T02:45:06;5.20;99.90
10472;DHT22;5283;48.876;8.962;2023-04-07T02:47:34;5.10;99.90
10472;DHT22;5283;48.876;8.962;2023-04-07T02:50:01;5.10;99.90
10472;DHT22;5283;48.876;8.962;2023-04-07T02:52:28;5.10;99.90
10472;DHT22;5283;48.876;8.962;2023-04-07T02:54:55;5.00;99.90
10472;DHT22;5283;48.876;8.962;2023-04-07T02:57:22;5.00;99.90
10472;DHT22;5283;48.876;8.962;2023-04-07T02:59:48;5.00;99.90
10472;DHT22;5283;48.876;8.962;2023-04-07T03:02:15;5.00;99.90
10472;DHT22;5283;48.876;8.962;2023-04-07T03:04:42;5.00;99.90
10472;DHT22;5283;48.876;8.962;2023-04-07T03:07:08;5.00;99.90
10472;DHT22;5283;48.876;8.962;2023-04-07T03:09:35;5.10;99.90
10472;DHT22;5283;48.876;8.962;2023-04-07T03:12:02;5.00;99.90
10472;DHT22;5283;48.876;8.962;2023-04-07T03:14:29;5.10;99.90
10472;DHT22;5283;48.876;8.962;2023-04-07T03:16:55;5.10;99.90
10472;DHT22;5283;48.876;8.962;2023-04-07T03:19:22;5.10;99.90
10472;DHT22;5283;48.876;8.962;2023-04-07T03:21:49;5.20;99.90
10472;DHT22;5283;48.876;8.962;2023-04-07T03:24:16;5.20;99.90
10472;DHT22;5283;48.876;8.962;2023-04-07T03:26:43;5.10;99.90
10472;DHT22;5283;48.876;8.962;2023-04-07T03:29:10;5.10;99.90
10472;DHT22;5283;48.876;8.962;2023-04-07T03:31:37;5.10;99.90
10472;DHT22;5283;48.876;8.962;2023-04-07T03:34:04;5.00;99.90
10472;DHT22;5283;48.876;8.962;2023-04-07T03:36:30;5.00;99.90
10472;DHT22;5283;48.876;8.962;2023-04-07T03:38:57;5.00;99.90
10472;DHT22;5283;48.876;8.962;2023-04-07T03:41:24;5.00;99.90
10472;DHT22;5283;48.876;8.962;2023-04-07T03:43:50;5.00;99.90
10472;DHT22;5283;48.876;8.962;2023-04-07T03:46:20;5.00;99.90
10472;DHT22;5283;48.876;8.962;2023-04-07T03:48:47;5.00;99.90
10472;DHT22;5283;48.876;8.962;2023-04-07T03:51:14;5.00;99.90
10472;DHT22;5283;48.876;8.962;2023-04-07T03:53:41;4.90;99.90
10472;DHT22;5283;48.876;8.962;2023-04-07T03:56:08;4.90;99.90
10472;DHT22;5283;48.876;8.962;2023-04-07T03:58:35;5.00;99.90
10472;DHT22;5283;48.876;8.962;2023-04-07T04:01:02;5.00;99.90
10472;DHT22;5283;48.876;8.962;2023-04-07T04:03:28;5.00;99.90
10472;DHT22;5283;48.876;8.962;2023-04-07T04:05:55;5.00;99.90
10472;DHT22;5283;48.876;8.962;2023-04-07T04:08:22;5.00;99.90
10472;DHT22;5283;48.876;8.962;2023-04-07T04:10:49;5.00;99.90
10472;DHT22;5283;48.876;8.962;2023-04-07T04:13:16;5.00;99.90
10472;DHT22;5283;48.876;8.962;2023-04-07T04:15:43;4.90;99.90
10472;DHT22;5283;48.876;8.962;2023-04-07T04:18:10;5.00;99.90
10472;DHT22;5283;48.876;8.962;2023-04-07T04:20:37;4.90;99.90
10472;DHT22;5283;48.876;8.962;2023-04-07T04:23:03;5.00;99.90
10472;DHT22;5283;48.876;8.962;2023-04-07T04:25:30;5.00;99.90
10472;DHT22;5283;48.876;8.962;2023-04-07T04:27:57;5.00;99.90
10472;DHT22;5283;48.876;8.962;2023-04-07T04:30:23;5.00;99.90
10472;DHT22;5283;48.876;8.962;2023-04-07T04:32:50;5.10;99.90
10472;DHT22;5283;48.876;8.962;2023-04-07T04:35:17;5.10;99.90
10472;DHT22;5283;48.876;8.962;2023-04-07T04:37:43;5.10;99.90
10472;DHT22;5283;48.876;8.962;2023-04-07T04:40:10;5.00;99.90
10472;DHT22;5283;48.876;8.962;2023-04-07T04:42:37;4.90;99.90
10472;DHT22;5283;48.876;8.962;2023-04-07T04:45:04;4.90;99.90
10472;DHT22;5283;48.876;8.962;2023-04-07T04:47:31;4.90;99.90
10472;DHT22;5283;48.876;8.962;2023-04-07T04:49:58;4.90;99.90
10472;DHT22;5283;48.876;8.962;2023-04-07T04:52:24;5.00;99.90
10472;DHT22;5283;48.876;8.962;2023-04-07T04:54:52;4.90;99.90
10472;DHT22;5283;48.876;8.962;2023-04-07T04:57:19;5.00;99.90
10472;DHT22;5283;48.876;8.962;2023-04-07T04:59:46;5.00;99.90
10472;DHT22;5283;48.876;8.962;2023-04-07T05:02:12;4.90;99.90
10472;DHT22;5283;48.876;8.962;2023-04-07T05:04:39;4.90;99.90
10472;DHT22;5283;48.876;8.962;2023-04-07T05:07:06;4.90;99.90
10472;DHT22;5283;48.876;8.962;2023-04-07T05:09:33;4.90;99.90
10472;DHT22;5283;48.876;8.962;2023-04-07T05:11:59;4.90;99.90
10472;DHT22;5283;48.876;8.962;2023-04-07T05:14:27;4.90;99.90
10472;DHT22;5283;48.876;8.962;2023-04-07T05:16:54;4.90;99.90
10472;DHT22;5283;48.876;8.962;2023-04-07T05:19:21;4.90;99.90
10472;DHT22;5283;48.876;8.962;2023-04-07T05:21:48;5.00;99.90
10472;DHT22;5283;48.876;8.962;2023-04-07T05:24:14;5.00;99.90
10472;DHT22;5283;48.876;8.962;2023-04-07T05:26:41;5.00;99.90
10472;DHT22;5283;48.876;8.962;2023-04-07T05:29:07;5.00;99.90
10472;DHT22;5283;48.876;8.962;2023-04-07T05:31:34;5.00;99.90
10472;DHT22;5283;48.876;8.962;2023-04-07T05:34:02;5.00;99.90
10472;DHT22;5283;48.876;8.962;2023-04-07T05:36:29;5.00;99.90
10472;DHT22;5283;48.876;8.962;2023-04-07T05:38:57;5.10;99.90
10472;DHT22;5283;48.876;8.962;2023-04-07T05:41:23;5.10;99.90
10472;DHT22;5283;48.876;8.962;2023-04-07T05:43:50;5.10;99.90
10472;DHT22;5283;48.876;8.962;2023-04-07T05:46:17;5.10;99.90
10472;DHT22;5283;48.876;8.962;2023-04-07T05:48:43;5.10;99.90
10472;DHT22;5283;48.876;8.962;2023-04-07T05:51:10;5.20;99.90
10472;DHT22;5283;48.876;8.962;2023-04-07T05:53:37;5.20;99.90
10472;DHT22;5283;48.876;8.962;2023-04-07T05:56:04;5.10;99.90
10472;DHT22;5283;48.876;8.962;2023-04-07T05:58:31;5.10;99.90
10472;DHT22;5283;48.876;8.962;2023-04-07T06:00:58;5.10;99.90
10472;DHT22;5283;48.876;8.962;2023-04-07T06:03:25;5.10;99.90
10472;DHT22;5283;48.876;8.962;2023-04-07T06:05:51;5.10;99.90
10472;DHT22;5283;48.876;8.962;2023-04-07T06:08:18;5.10;99.90
10472;DHT22;5283;48.876;8.962;2023-04-07T06:10:45;5.10;99.90
10472;DHT22;5283;48.876;8.962;2023-04-07T06:13:12;5.20;99.90
10472;DHT22;5283;48.876;8.962;2023-04-07T06:15:38;5.20;99.90
10472;DHT22;5283;48.876;8.962;2023-04-07T06:18:05;5.30;99.90
10472;DHT22;5283;48.876;8.962;2023-04-07T06:20:32;5.40;99.90
10472;DHT22;5283;48.876;8.962;2023-04-07T06:22:58;5.50;99.90
10472;DHT22;5283;48.876;8.962;2023-04-07T06:25:25;5.60;99.90
10472;DHT22;5283;48.876;8.962;2023-04-07T06:27:53;5.60;99.90
10472;DHT22;5283;48.876;8.962;2023-04-07T06:30:19;5.60;99.90
10472;DHT22;5283;48.876;8.962;2023-04-07T06:32:46;5.70;99.90
10472;DHT22;5283;48.876;8.962;2023-04-07T06:35:13;5.80;99.90
10472;DHT22;5283;48.876;8.962;2023-04-07T06:37:39;5.90;99.90
10472;DHT22;5283;48.876;8.962;2023-04-07T06:40:06;6.00;99.90
10472;DHT22;5283;48.876;8.962;2023-04-07T06:42:33;6.20;99.90
10472;DHT22;5283;48.876;8.962;2023-04-07T06:45:00;6.50;99.90
10472;DHT22;5283;48.876;8.962;2023-04-07T06:47:27;7.20;99.90
10472;DHT22;5283;48.876;8.962;2023-04-07T06:49:53;7.90;99.90
10472;DHT22;5283;48.876;8.962;2023-04-07T06:52:20;8.50;99.90
10472;DHT22;5283;48.876;8.962;2023-04-07T06:54:47;8.80;99.90
10472;DHT22;5283;48.876;8.962;2023-04-07T06:57:14;9.10;99.90
10472;DHT22;5283;48.876;8.962;2023-04-07T06:59:41;9.20;99.90
10472;DHT22;5283;48.876;8.962;2023-04-07T07:02:07;9.40;99.90
10472;DHT22;5283;48.876;8.962;2023-04-07T07:04:34;9.40;99.90
10472;DHT22;5283;48.876;8.962;2023-04-07T07:07:01;9.40;99.90
10472;DHT22;5283;48.876;8.962;2023-04-07T07:09:28;9.10;99.90
10472;DHT22;5283;48.876;8.962;2023-04-07T07:11:55;8.80;99.90
10472;DHT22;5283;48.876;8.962;2023-04-07T07:14:23;9.20;99.90
10472;DHT22;5283;48.876;8.962;2023-04-07T07:16:49;9.30;99.90
10472;DHT22;5283;48.876;8.962;2023-04-07T07:19:16;9.30;99.90
10472;DHT22;5283;48.876;8.962;2023-04-07T07:21:43;9.50;99.90
10472;DHT22;5283;48.876;8.962;2023-04-07T07:24:10;9.60;99.90
10472;DHT22;5283;48.876;8.962;2023-04-07T07:26:36;9.60;99.90
10472;DHT22;5283;48.876;8.962;2023-04-07T07:29:03;9.90;99.90
10472;DHT22;5283;48.876;8.962;2023-04-07T07:31:30;10.20;99.90
10472;DHT22;5283;48.876;8.962;2023-04-07T07:33:56;10.40;99.90
10472;DHT22;5283;48.876;8.962;2023-04-07T07:36:23;10.60;99.90
10472;DHT22;5283;48.876;8.962;2023-04-07T07:38:50;10.70;99.90
10472;DHT22;5283;48.876;8.962;2023-04-07T07:41:17;10.60;99.90
10472;DHT22;5283;48.876;8.962;2023-04-07T07:43:43;10.60;99.90
10472;DHT22;5283;48.876;8.962;2023-04-07T07:46:10;10.60;99.90
10472;DHT22;5283;48.876;8.962;2023-04-07T07:48:37;10.40;99.90
10472;DHT22;5283;48.876;8.962;2023-04-07T07:51:04;10.30;99.90
10472;DHT22;5283;48.876;8.962;2023-04-07T07:53:31;10.30;99.90
10472;DHT22;5283;48.876;8.962;2023-04-07T07:55:58;10.20;99.90
10472;DHT22;5283;48.876;8.962;2023-04-07T07:58:24;10.10;99.90
10472;DHT22;5283;48.876;8.962;2023-04-07T08:00:51;9.90;99.90
10472;DHT22;5283;48.876;8.962;2023-04-07T08:03:18;9.90;99.90
10472;DHT22;5283;48.876;8.962;2023-04-07T08:05:48;9.80;99.90
10472;DHT22;5283;48.876;8.962;2023-04-07T08:08:15;9.70;99.90
10472;DHT22;5283;48.876;8.962;2023-04-07T08:10:41;9.60;99.90
10472;DHT22;5283;48.876;8.962;2023-04-07T08:13:09;9.70;99.90
10472;DHT22;5283;48.876;8.962;2023-04-07T08:15:36;9.80;99.90
10472;DHT22;5283;48.876;8.962;2023-04-07T08:18:02;9.90;99.90
10472;DHT22;5283;48.876;8.962;2023-04-07T08:20:32;9.90;99.90
10472;DHT22;5283;48.876;8.962;2023-04-07T08:22:59;9.90;99.90
10472;DHT22;5283;48.876;8.962;2023-04-07T08:25:28;9.90;99.90
10472;DHT22;5283;48.876;8.962;2023-04-07T08:27:54;10.00;99.90
10472;DHT22;5283;48.876;8.962;2023-04-07T08:30:21;9.90;99.90
10472;DHT22;5283;48.876;8.962;2023-04-07T08:32:48;9.90;99.90
10472;DHT22;5283;48.876;8.962;2023-04-07T08:35:15;10.00;99.90
10472;DHT22;5283;48.876;8.962;2023-04-07T08:37:42;10.10;99.90
10472;DHT22;5283;48.876;8.962;2023-04-07T08:40:10;10.10;99.90
10472;DHT22;5283;48.876;8.962;2023-04-07T08:42:40;10.20;99.90
10472;DHT22;5283;48.876;8.962;2023-04-07T08:45:08;10.40;99.90
10472;DHT22;5283;48.876;8.962;2023-04-07T08:47:36;10.40;99.90
10472;DHT22;5283;48.876;8.962;2023-04-07T08:50:09;10.80;99.90
10472;DHT22;5283;48.876;8.962;2023-04-07T08:52:49;10.90;99.90
10472;DHT22;5283;48.876;8.962;2023-04-07T08:55:18;11.20;99.90
10472;DHT22;5283;48.876;8.962;2023-04-07T08:57:45;11.40;99.90
10472;DHT22;5283;48.876;8.962;2023-04-07T09:00:13;11.30;99.90
10472;DHT22;5283;48.876;8.962;2023-04-07T09:02:42;11.50;99.90
10472;DHT22;5283;48.876;8.962;2023-04-07T09:05:11;11.70;99.90
10472;DHT22;5283;48.876;8.962;2023-04-07T09:07:40;11.90;99.90
10472;DHT22;5283;48.876;8.962;2023-04-07T09:10:08;12.10;99.90
10472;DHT22;5283;48.876;8.962;2023-04-07T09:12:35;12.30;99.90
10472;DHT22;5283;48.876;8.962;2023-04-07T09:15:05;12.30;99.90
10472;DHT22;5283;48.876;8.962;2023-04-07T09:17:32;12.40;99.90
10472;DHT22;5283;48.876;8.962;2023-04-07T09:19:59;12.50;99.90
10472;DHT22;5283;48.876;8.962;2023-04-07T09:25:14;12.40;99.90
10472;DHT22;5283;48.876;8.962;2023-04-07T09:27:58;12.00;99.90
10472;DHT22;5283;48.876;8.962;2023-04-07T09:30:26;11.80;99.90
10472;DHT22;5283;48.876;8.962;2023-04-07T09:32:54;11.60;99.90
10472;DHT22;5283;48.876;8.962;2023-04-07T09:35:21;11.60;99.90
10472;DHT22;5283;48.876;8.962;2023-04-07T09:38:06;11.70;99.90
10472;DHT22;5283;48.876;8.962;2023-04-07T09:40:34;11.40;99.90
10472;DHT22;5283;48.876;8.962;2023-04-07T09:43:03;11.30;99.90
10472;DHT22;5283;48.876;8.962;2023-04-07T09:45:30;11.70;99.90
10472;DHT22;5283;48.876;8.962;2023-04-07T09:48:20;12.10;99.90
10472;DHT22;5283;48.876;8.962;2023-04-07T09:50:47;12.50;99.90
10472;DHT22;5283;48.876;8.962;2023-04-07T09:53:17;12.90;99.90
10472;DHT22;5283;48.876;8.962;2023-04-07T09:55:49;13.00;99.90
10472;DHT22;5283;48.876;8.962;2023-04-07T09:58:16;13.20;99.90
10472;DHT22;5283;48.876;8.962;2023-04-07T10:00:44;13.30;99.90
10472;DHT22;5283;48.876;8.962;2023-04-07T10:03:11;13.10;99.90
10472;DHT22;5283;48.876;8.962;2023-04-07T10:05:39;13.00;99.90
10472;DHT22;5283;48.876;8.962;2023-04-07T10:08:06;12.60;99.90
10472;DHT22;5283;48.876;8.962;2023-04-07T10:10:34;12.30;99.90
10472;DHT22;5283;48.876;8.962;2023-04-07T10:13:03;12.20;99.90
10472;DHT22;5283;48.876;8.962;2023-04-07T10:15:30;11.90;99.90
10472;DHT22;5283;48.876;8.962;2023-04-07T10:17:57;11.70;99.90
10472;DHT22;5283;48.876;8.962;2023-04-07T10:20:26;11.70;99.90
10472;DHT22;5283;48.876;8.962;2023-04-07T10:22:54;11.80;99.90
10472;DHT22;5283;48.876;8.962;2023-04-07T10:25:24;11.80;99.90
10472;DHT22;5283;48.876;8.962;2023-04-07T10:27:55;12.10;99.90
10472;DHT22;5283;48.876;8.962;2023-04-07T10:30:29;12.50;99.90
10472;DHT22;5283;48.876;8.962;2023-04-07T10:32:57;13.00;99.90
10472;DHT22;5283;48.876;8.962;2023-04-07T10:35:24;13.30;99.90
10472;DHT22;5283;48.876;8.962;2023-04-07T10:40:34;12.80;99.90
10472;DHT22;5283;48.876;8.962;2023-04-07T10:43:02;12.30;99.90
10472;DHT22;5283;48.876;8.962;2023-04-07T10:48:15;12.00;99.90
10472;DHT22;5283;48.876;8.962;2023-04-07T10:50:44;12.00;99.90
10472;DHT22;5283;48.876;8.962;2023-04-07T10:53:13;12.10;99.90
10472;DHT22;5283;48.876;8.962;2023-04-07T10:55:44;12.40;99.90
10472;DHT22;5283;48.876;8.962;2023-04-07T10:58:25;12.40;99.90
10472;DHT22;5283;48.876;8.962;2023-04-07T11:03:32;12.10;99.90
10472;DHT22;5283;48.876;8.962;2023-04-07T11:06:10;12.10;99.90
10472;DHT22;5283;48.876;8.962;2023-04-07T11:11:07;12.00;99.90
10472;DHT22;5283;48.876;8.962;2023-04-07T11:13:40;11.80;99.90
10472;DHT22;5283;48.876;8.962;2023-04-07T11:16:08;11.90;99.90
10472;DHT22;5283;48.876;8.962;2023-04-07T11:18:35;11.90;99.90
10472;DHT22;5283;48.876;8.962;2023-04-07T11:21:03;11.90;99.90
10472;DHT22;5283;48.876;8.962;2023-04-07T11:23:38;11.90;99.90
10472;DHT22;5283;48.876;8.962;2023-04-07T11:26:06;11.90;99.90
10472;DHT22;5283;48.876;8.962;2023-04-07T11:28:33;11.90;99.90
10472;DHT22;5283;48.876;8.962;2023-04-07T11:31:00;11.90;99.90
10472;DHT22;5283;48.876;8.962;2023-04-07T11:33:29;11.80;99.90
10472;DHT22;5283;48.876;8.962;2023-04-07T11:35:58;11.70;99.90
10472;DHT22;5283;48.876;8.962;2023-04-07T11:38:27;11.60;99.90
10472;DHT22;5283;48.876;8.962;2023-04-07T11:40:55;11.50;99.90
10472;DHT22;5283;48.876;8.962;2023-04-07T11:43:24;11.40;99.90
10472;DHT22;5283;48.876;8.962;2023-04-07T11:46:11;11.30;99.90
10472;DHT22;5283;48.876;8.962;2023-04-07T11:48:39;11.20;99.90
10472;DHT22;5283;48.876;8.962;2023-04-07T11:51:18;11.10;99.90
10472;DHT22;5283;48.876;8.962;2023-04-07T11:53:45;11.20;99.90
10472;DHT22;5283;48.876;8.962;2023-04-07T11:56:14;11.20;99.90
10472;DHT22;5283;48.876;8.962;2023-04-07T11:58:48;11.20;99.90
10472;DHT22;5283;48.876;8.962;2023-04-07T12:01:15;11.30;99.90
10472;DHT22;5283;48.876;8.962;2023-04-07T12:03:58;11.40;99.90
10472;DHT22;5283;48.876;8.962;2023-04-07T12:06:35;11.60;99.90
10472;DHT22;5283;48.876;8.962;2023-04-07T12:09:04;11.70;99.90
10472;DHT22;5283;48.876;8.962;2023-04-07T12:11:32;11.70;99.90
10472;DHT22;5283;48.876;8.962;2023-04-07T12:13:59;11.80;99.90
10472;DHT22;5283;48.876;8.962;2023-04-07T12:16:26;12.00;99.90
10472;DHT22;5283;48.876;8.962;2023-04-07T12:18:53;12.10;99.90
10472;DHT22;5283;48.876;8.962;2023-04-07T12:21:20;12.10;99.90
10472;DHT22;5283;48.876;8.962;2023-04-07T12:23:46;11.90;99.90
10472;DHT22;5283;48.876;8.962;2023-04-07T12:26:13;11.70;99.90
10472;DHT22;5283;48.876;8.962;2023-04-07T12:28:40;11.50;99.90
10472;DHT22;5283;48.876;8.962;2023-04-07T12:31:07;11.50;99.90
10472;DHT22;5283;48.876;8.962;2023-04-07T12:33:33;11.50;99.90
10472;DHT22;5283;48.876;8.962;2023-04-07T12:36:00;11.50;99.90
10472;DHT22;5283;48.876;8.962;2023-04-07T12:38:27;11.60;99.90
10472;DHT22;5283;48.876;8.962;2023-04-07T12:40:54;11.70;99.90
10472;DHT22;5283;48.876;8.962;2023-04-07T12:43:20;11.70;99.90
10472;DHT22;5283;48.876;8.962;2023-04-07T12:45:47;11.80;99.90
10472;DHT22;5283;48.876;8.962;2023-04-07T12:48:14;11.80;99.90
10472;DHT22;5283;48.876;8.962;2023-04-07T12:50:42;11.70;99.90
10472;DHT22;5283;48.876;8.962;2023-04-07T12:53:08;11.60;99.90
10472;DHT22;5283;48.876;8.962;2023-04-07T12:55:35;11.60;99.90
10472;DHT22;5283;48.876;8.962;2023-04-07T12:58:02;11.50;99.90
10472;DHT22;5283;48.876;8.962;2023-04-07T13:00:30;11.30;99.90
10472;DHT22;5283;48.876;8.962;2023-04-07T13:02:57;11.20;99.90
10472;DHT22;5283;48.876;8.962;2023-04-07T13:05:23;11.00;99.90
10472;DHT22;5283;48.876;8.962;2023-04-07T13:07:50;10.90;99.90
10472;DHT22;5283;48.876;8.962;2023-04-07T13:10:17;10.60;99.90
10472;DHT22;5283;48.876;8.962;2023-04-07T13:12:44;10.40;99.90
10472;DHT22;5283;48.876;8.962;2023-04-07T13:15:10;10.40;99.90
10472;DHT22;5283;48.876;8.962;2023-04-07T13:17:37;10.40;99.90
10472;DHT22;5283;48.876;8.962;2023-04-07T13:20:04;10.50;99.90
10472;DHT22;5283;48.876;8.962;2023-04-07T13:22:32;10.50;99.90
10472;DHT22;5283;48.876;8.962;2023-04-07T13:25:00;10.60;99.90
10472;DHT22;5283;48.876;8.962;2023-04-07T13:27:27;10.60;99.90
10472;DHT22;5283;48.876;8.962;2023-04-07T13:29:54;10.60;99.90
10472;DHT22;5283;48.876;8.962;2023-04-07T13:32:22;10.60;99.90
10472;DHT22;5283;48.876;8.962;2023-04-07T13:34:49;10.70;99.90
10472;DHT22;5283;48.876;8.962;2023-04-07T13:37:19;10.90;99.90
10472;DHT22;5283;48.876;8.962;2023-04-07T13:39:46;11.10;99.90
10472;DHT22;5283;48.876;8.962;2023-04-07T13:42:14;11.50;99.90
10472;DHT22;5283;48.876;8.962;2023-04-07T13:44:46;11.70;99.90
10472;DHT22;5283;48.876;8.962;2023-04-07T13:47:13;11.90;99.90
10472;DHT22;5283;48.876;8.962;2023-04-07T13:49:48;12.00;99.90
10472;DHT22;5283;48.876;8.962;2023-04-07T13:52:15;12.10;99.90
10472;DHT22;5283;48.876;8.962;2023-04-07T13:54:45;11.90;99.90
10472;DHT22;5283;48.876;8.962;2023-04-07T13:57:11;11.70;99.90
10472;DHT22;5283;48.876;8.962;2023-04-07T13:59:49;11.30;99.90
10472;DHT22;5283;48.876;8.962;2023-04-07T14:02:19;11.30;99.90
10472;DHT22;5283;48.876;8.962;2023-04-07T14:04:46;11.30;99.90
10472;DHT22;5283;48.876;8.962;2023-04-07T14:07:13;11.20;99.90
10472;DHT22;5283;48.876;8.962;2023-04-07T14:09:39;11.00;99.90
10472;DHT22;5283;48.876;8.962;2023-04-07T14:12:08;11.10;99.90
10472;DHT22;5283;48.876;8.962;2023-04-07T14:14:35;11.20;99.90
10472;DHT22;5283;48.876;8.962;2023-04-07T14:17:03;11.40;99.90
10472;DHT22;5283;48.876;8.962;2023-04-07T14:19:30;11.50;99.90
10472;DHT22;5283;48.876;8.962;2023-04-07T14:21:58;11.60;99.90
10472;DHT22;5283;48.876;8.962;2023-04-07T14:24:25;11.80;99.90
10472;DHT22;5283;48.876;8.962;2023-04-07T14:26:52;11.90;99.90
10472;DHT22;5283;48.876;8.962;2023-04-07T14:29:20;11.90;99.90
10472;DHT22;5283;48.876;8.962;2023-04-07T14:31:47;11.90;99.90
10472;DHT22;5283;48.876;8.962;2023-04-07T14:34:17;11.60;99.90
10472;DHT22;5283;48.876;8.962;2023-04-07T14:36:54;11.40;99.90
10472;DHT22;5283;48.876;8.962;2023-04-07T14:39:22;11.20;99.90
10472;DHT22;5283;48.876;8.962;2023-04-07T14:41:50;11.20;99.90
10472;DHT22;5283;48.876;8.962;2023-04-07T14:44:17;11.20;99.90
10472;DHT22;5283;48.876;8.962;2023-04-07T14:46:43;11.20;99.90
10472;DHT22;5283;48.876;8.962;2023-04-07T14:49:10;11.30;99.90
10472;DHT22;5283;48.876;8.962;2023-04-07T14:51:38;11.80;99.90
10472;DHT22;5283;48.876;8.962;2023-04-07T14:54:05;12.20;99.90
10472;DHT22;5283;48.876;8.962;2023-04-07T14:56:31;12.60;99.90
10472;DHT22;5283;48.876;8.962;2023-04-07T14:58:58;12.80;99.90
10472;DHT22;5283;48.876;8.962;2023-04-07T15:01:25;12.50;99.90
10472;DHT22;5283;48.876;8.962;2023-04-07T15:03:52;12.40;99.90
10472;DHT22;5283;48.876;8.962;2023-04-07T15:06:19;12.00;99.90
10472;DHT22;5283;48.876;8.962;2023-04-07T15:08:45;11.80;99.90
10472;DHT22;5283;48.876;8.962;2023-04-07T15:11:12;11.70;99.90
10472;DHT22;5283;48.876;8.962;2023-04-07T15:13:39;12.00;99.90
10472;DHT22;5283;48.876;8.962;2023-04-07T15:16:10;12.10;99.90
10472;DHT22;5283;48.876;8.962;2023-04-07T15:18:39;12.30;99.90
10472;DHT22;5283;48.876;8.962;2023-04-07T15:21:10;12.50;99.90
10472;DHT22;5283;48.876;8.962;2023-04-07T15:23:38;12.70;99.90
10472;DHT22;5283;48.876;8.962;2023-04-07T15:26:06;12.80;99.90
10472;DHT22;5283;48.876;8.962;2023-04-07T15:28:36;12.60;99.90
10472;DHT22;5283;48.876;8.962;2023-04-07T15:31:04;12.60;99.90
10472;DHT22;5283;48.876;8.962;2023-04-07T15:33:37;12.40;99.90
10472;DHT22;5283;48.876;8.962;2023-04-07T15:36:08;12.60;99.90
10472;DHT22;5283;48.876;8.962;2023-04-07T15:38:35;12.40;99.90
10472;DHT22;5283;48.876;8.962;2023-04-07T15:41:04;12.40;99.90
10472;DHT22;5283;48.876;8.962;2023-04-07T15:43:31;12.60;99.90
10472;DHT22;5283;48.876;8.962;2023-04-07T15:45:57;12.50;99.90
10472;DHT22;5283;48.876;8.962;2023-04-07T15:48:24;12.30;99.90
10472;DHT22;5283;48.876;8.962;2023-04-07T15:50:52;12.30;99.90
10472;DHT22;5283;48.876;8.962;2023-04-07T15:53:19;12.10;99.90
10472;DHT22;5283;48.876;8.962;2023-04-07T15:55:46;12.20;99.90
10472;DHT22;5283;48.876;8.962;2023-04-07T15:58:12;12.10;99.90
10472;DHT22;5283;48.876;8.962;2023-04-07T16:00:39;12.10;99.90
10472;DHT22;5283;48.876;8.962;2023-04-07T16:03:06;12.10;99.90
10472;DHT22;5283;48.876;8.962;2023-04-07T16:05:33;12.20;99.90
10472;DHT22;5283;48.876;8.962;2023-04-07T16:08:00;12.10;99.90
10472;DHT22;5283;48.876;8.962;2023-04-07T16:10:26;11.90;99.90
10472;DHT22;5283;48.876;8.962;2023-04-07T16:12:53;11.60;99.90
10472;DHT22;5283;48.876;8.962;2023-04-07T16:15:20;11.30;99.90
10472;DHT22;5283;48.876;8.962;2023-04-07T16:17:51;11.00;99.90